Time;durP1;ratioP1;P1;durP2;ratioP2;P2;SDS_P1;SDS_P2;PMS_P1;PMS_P2;Temp;Humidity;BMP_temperature;BMP_pressure;BME280_temperature;BME280_humidity;BME280_pressure;Samples;Min_cycle;Max_cycle;Signal;HPM_P1;HPM_P2
2022/07/24 00:01:03;;;;;;;5.03;3.05;;;;;;;-148.88;81.75;75657.38;5054120;28;20021;-88
2022/07/24 00:03:30;;;;;;;6.50;3.10;;;;;;;-148.88;82.02;75659.41;5052575;28;20025;-87
2022/07/24 00:05:59;;;;;;;4.85;3.00;;;;;;;-148.88;82.49;75659.41;5054071;28;20024;-88
2022/07/24 00:08:24;;;;;;;5.85;3.28;;;;;;;-148.88;82.66;75661.44;5052627;28;20062;-87
2022/07/24 00:10:49;;;;;;;6.47;3.40;;;;;;;-148.88;82.86;75667.53;5052979;28;20025;-88
2022/07/24 00:13:17;;;;;;;6.60;2.95;;;;;;;-148.88;83.13;75671.59;5052542;28;20029;-87
2022/07/24 00:15:43;;;;;;;4.32;3.30;;;;;;;-148.88;83.31;75667.53;5052734;28;20041;-87
2022/07/24 00:18:08;;;;;;;5.25;3.33;;;;;;;-148.88;83.35;75671.59;5052387;28;20036;-86
2022/07/24 00:20:33;;;;;;;6.53;3.50;;;;;;;-148.88;83.38;75669.56;5052609;28;20035;-87
2022/07/24 00:22:59;;;;;;;5.93;3.17;;;;;;;-148.88;83.55;75683.78;5052555;28;20119;-87
2022/07/24 00:25:24;;;;;;;5.70;3.10;;;;;;;-148.88;83.95;75679.72;5052047;28;20120;-87
2022/07/24 00:27:55;;;;;;;4.70;2.97;;;;;;;-148.88;84.29;75675.66;5052218;28;20115;-88
2022/07/24 00:30:20;;;;;;;4.75;3.28;;;;;;;-148.88;83.89;75675.66;5053362;28;20036;-87
2022/07/24 00:32:51;;;;;;;4.10;2.97;;;;;;;-148.88;84.43;75675.66;5052296;28;20029;-88
2022/07/24 00:35:20;;;;;;;4.10;2.90;;;;;;;-148.88;83.99;75681.75;5054045;28;20032;-88
2022/07/24 00:37:48;;;;;;;4.15;3.25;;;;;;;-148.88;83.88;75687.84;5052525;28;20029;-88
2022/07/24 00:40:26;;;;;;;8.50;3.60;;;;;;;-148.88;84.29;75687.84;5052545;28;20064;-88
2022/07/24 00:43:00;;;;;;;4.90;3.20;;;;;;;-148.88;84.53;75695.97;5052115;28;20048;-88
2022/07/24 00:45:28;;;;;;;5.43;2.90;;;;;;;-148.88;84.88;75691.91;5052096;28;20056;-87
2022/07/24 00:47:59;;;;;;;5.65;3.05;;;;;;;-148.88;85.29;75691.91;5052680;28;20024;-87
2022/07/24 00:50:26;;;;;;;4.78;2.83;;;;;;;-148.88;85.76;75700.03;5050816;28;20040;-88
2022/07/24 00:52:55;;;;;;;4.38;3.17;;;;;;;-148.88;85.61;75704.09;5051437;28;20033;-88
2022/07/24 00:55:27;;;;;;;5.20;2.97;;;;;;;-148.88;85.51;75706.13;5053078;28;20029;-88
2022/07/24 00:57:52;;;;;;;6.20;3.28;;;;;;;-148.88;85.84;75714.25;5052970;28;20081;-87
2022/07/24 01:00:22;;;;;;;5.20;3.45;;;;;;;-148.88;86.54;75716.28;5055396;28;20132;-88
2022/07/24 01:02:57;;;;;;;5.75;3.30;;;;;;;-148.88;86.79;75720.34;5056074;28;20494;-87
2022/07/24 01:05:25;;;;;;;4.30;3.30;;;;;;;-148.88;87.13;75714.25;5057375;28;20155;-87
2022/07/24 01:07:54;;;;;;;5.57;3.20;;;;;;;-148.88;87.54;75718.31;5055845;28;20403;-88
2022/07/24 01:10:22;;;;;;;5.55;3.13;;;;;;;-148.88;87.47;75716.28;5056768;28;20437;-88
2022/07/24 01:12:48;;;;;;;4.68;3.28;;;;;;;-148.88;87.84;75714.25;5055559;28;20036;-87
2022/07/24 01:15:13;;;;;;;5.43;3.60;;;;;;;-148.88;87.58;75712.22;5055727;28;20025;-88
2022/07/24 01:17:43;;;;;;;7.32;3.58;;;;;;;-148.88;87.60;75718.31;5055596;28;20107;-87
2022/07/24 01:20:09;;;;;;;5.75;4.10;;;;;;;-148.88;87.62;75724.41;5055969;28;20028;-87
2022/07/24 01:22:46;;;;;;;4.78;3.92;;;;;;;-148.88;88.03;75724.41;5055858;28;20471;-87
2022/07/24 01:25:15;;;;;;;6.85;3.42;;;;;;;-148.88;88.14;75726.44;5055811;28;20029;-87
2022/07/24 01:27:43;;;;;;;5.10;3.60;;;;;;;-148.88;88.61;75724.41;5055657;28;20399;-87
2022/07/24 01:30:10;;;;;;;5.72;4.03;;;;;;;-148.88;88.61;75732.53;5055299;28;20036;-86
2022/07/24 01:32:41;;;;;;;5.22;3.88;;;;;;;-148.88;89.19;75732.53;5055180;28;20044;-87
2022/07/24 01:35:10;;;;;;;5.72;3.95;;;;;;;-148.88;89.36;75736.59;5055294;28;20024;-88
2022/07/24 01:37:35;;;;;;;5.03;3.67;;;;;;;-148.88;89.62;75744.72;5056606;28;20029;-88
2022/07/24 01:40:03;;;;;;;6.07;4.00;;;;;;;-148.88;89.88;75750.81;5056964;28;20029;-88
2022/07/24 01:42:29;;;;;;;5.35;3.40;;;;;;;-148.88;90.47;75748.78;5055231;28;20102;-88
2022/07/24 01:44:57;;;;;;;4.90;3.42;;;;;;;-148.88;90.94;75752.84;5055574;28;20087;-88
2022/07/24 01:47:23;;;;;;;6.35;3.67;;;;;;;-148.88;90.90;75756.91;5055447;28;20509;-86
2022/07/24 01:49:54;;;;;;;5.82;3.97;;;;;;;-148.88;91.02;75748.78;5056314;28;20029;-88
2022/07/24 01:52:25;;;;;;;5.55;3.70;;;;;;;-148.88;90.57;75760.97;5067955;28;20052;-87
2022/07/24 01:54:58;;;;;;;6.60;4.28;;;;;;;-148.88;90.82;75763.00;5071524;28;20031;-87
2022/07/24 01:57:27;;;;;;;;;;;;;;;-148.88;90.81;75760.97;5075659;28;20025;-88
2022/07/24 01:59:54;;;;;;;5.93;3.65;;;;;;;-148.88;90.31;75765.03;5057300;28;19962;-86
2022/07/24 02:02:20;;;;;;;4.88;3.83;;;;;;;-148.88;90.63;75769.09;5055938;28;20028;-87
2022/07/24 02:05:12;;;;;;;5.75;3.50;;;;;;;-148.88;91.07;75777.22;5054216;28;20399;-87
2022/07/24 02:07:56;;;;;;;6.05;3.83;;;;;;;-148.88;91.12;75781.28;5055619;28;20032;-87
2022/07/24 02:10:23;;;;;;;5.55;3.70;;;;;;;-148.88;91.31;75783.31;5054519;28;20021;-87
2022/07/24 02:12:48;;;;;;;5.10;3.35;;;;;;;-148.88;91.50;75789.41;5054404;28;20037;-87
2022/07/24 02:15:14;;;;;;;6.60;4.13;;;;;;;-148.88;91.70;75789.41;5054502;28;20387;-87
2022/07/24 02:17:44;;;;;;;5.07;3.80;;;;;;;-148.88;91.94;75799.56;5054913;28;20187;-87
2022/07/24 02:20:12;;;;;;;5.90;3.80;;;;;;;-148.88;92.21;75797.53;5055004;28;20036;-87
2022/07/24 02:22:38;;;;;;;5.85;3.85;;;;;;;-148.88;92.41;75803.63;5055500;28;20471;-88
2022/07/24 02:25:04;;;;;;;4.57;3.45;;;;;;;-148.88;92.55;75801.59;5055742;28;20017;-87
2022/07/24 02:27:32;;;;;;;5.03;3.40;;;;;;;-148.88;92.75;75811.75;5055636;28;20025;-87
2022/07/24 02:30:01;;;;;;;6.47;4.07;;;;;;;-148.88;93.19;75809.72;5056041;28;20024;-87
2022/07/24 02:32:29;;;;;;;8.00;4.00;;;;;;;-148.88;92.92;75807.69;5054302;28;20115;-87
2022/07/24 02:35:05;;;;;;;5.07;3.80;;;;;;;-148.88;92.85;75813.78;5054461;28;20376;-89
2022/07/24 02:37:31;;;;;;;5.00;4.20;;;;;;;-148.88;93.17;75809.72;5055230;28;20533;-87
2022/07/24 02:40:07;;;;;;;6.43;4.75;;;;;;;-148.88;93.30;75815.81;5054902;28;20025;-88
2022/07/24 02:42:35;;;;;;;5.85;4.93;;;;;;;-148.88;93.38;75821.91;5054606;28;20497;-87
2022/07/24 02:45:01;;;;;;;8.80;4.88;;;;;;;-148.88;93.62;75821.91;5054689;28;20021;-88
2022/07/24 02:47:26;;;;;;;7.00;4.70;;;;;;;-148.88;93.91;75828.00;5054479;28;20448;-87
2022/07/24 02:49:51;;;;;;;5.25;4.25;;;;;;;-148.88;94.19;75825.97;5055661;28;20033;-87
2022/07/24 02:52:17;;;;;;;7.47;4.45;;;;;;;-148.88;94.19;75825.97;5072523;22;20041;-75
2022/07/24 02:54:42;;;;;;;5.15;4.13;;;;;;;-148.88;94.03;75825.97;5053765;28;20037;-75
2022/07/24 02:57:08;;;;;;;6.20;3.75;;;;;;;-148.88;93.96;75834.09;5053630;28;20025;-75
2022/07/24 02:59:33;;;;;;;5.68;3.88;;;;;;;-148.88;93.93;75830.03;5054770;28;20021;-75
2022/07/24 03:01:58;;;;;;;5.03;4.15;;;;;;;-148.88;94.67;75836.13;5054979;28;20021;-75
2022/07/24 03:04:23;;;;;;;5.68;3.80;;;;;;;-148.88;94.46;75838.16;5054699;28;20108;-75
2022/07/24 03:06:49;;;;;;;6.82;4.20;;;;;;;-148.88;94.29;75840.19;5054631;28;20025;-75
2022/07/24 03:09:14;;;;;;;7.72;4.13;;;;;;;-148.88;94.42;75842.22;5054545;28;20025;-76
2022/07/24 03:11:40;;;;;;;6.50;4.10;;;;;;;-148.88;94.26;75846.28;5054508;28;20060;-76
2022/07/24 03:14:05;;;;;;;7.32;4.00;;;;;;;-148.88;94.18;75844.25;5054544;28;20098;-75
2022/07/24 03:16:31;;;;;;;7.68;4.43;;;;;;;-148.88;94.51;75846.28;5054633;28;20024;-75
2022/07/24 03:18:56;;;;;;;6.60;4.40;;;;;;;-148.88;94.55;75850.34;5054879;28;20084;-76
2022/07/24 03:21:22;;;;;;;6.40;4.38;;;;;;;-148.88;94.61;75860.50;5052780;28;20428;-75
2022/07/24 03:23:47;;;;;;;5.72;4.50;;;;;;;-148.88;95.09;75862.53;5055526;28;20025;-75
2022/07/24 03:26:12;;;;;;;6.72;4.40;;;;;;;-148.88;95.18;75864.56;5053804;28;20020;-75
2022/07/24 03:28:37;;;;;;;5.60;4.35;;;;;;;-148.88;95.28;75856.44;5054315;28;20029;-75
2022/07/24 03:31:03;;;;;;;5.93;4.60;;;;;;;-148.88;95.31;75862.53;5052902;28;20025;-75
2022/07/24 03:33:29;;;;;;;6.63;4.53;;;;;;;-148.88;95.47;75866.59;5054178;28;20029;-75
2022/07/24 03:35:56;;;;;;;6.78;4.75;;;;;;;-148.88;95.63;75862.53;5054233;28;20029;-75
2022/07/24 03:38:21;;;;;;;6.53;4.50;;;;;;;-148.88;95.96;75866.59;5052771;28;20017;-75
2022/07/24 03:40:47;;;;;;;6.07;4.55;;;;;;;-148.88;95.88;75868.63;5053929;28;20043;-75
2022/07/24 03:43:12;;;;;;;6.38;4.70;;;;;;;-148.88;96.25;75870.66;5052664;28;20020;-75
2022/07/24 03:45:38;;;;;;;7.45;5.18;;;;;;;-148.88;96.69;75882.84;5053922;28;20017;-75
2022/07/24 03:48:04;;;;;;;7.70;5.40;;;;;;;-148.88;96.87;75870.66;5052618;28;20017;-75
2022/07/24 03:50:29;;;;;;;6.40;5.38;;;;;;;-148.88;96.97;75878.78;5052561;28;20496;-75
2022/07/24 03:52:54;;;;;;;7.40;4.70;;;;;;;-148.88;97.31;75882.84;5054407;28;20029;-75
2022/07/24 03:55:20;;;;;;;7.95;5.05;;;;;;;-148.88;97.58;75874.72;5054325;28;20440;-75
2022/07/24 03:57:45;;;;;;;8.38;5.50;;;;;;;-148.88;97.61;75888.94;5053927;28;20107;-75
2022/07/24 04:00:11;;;;;;;7.30;5.28;;;;;;;-148.88;97.95;75888.94;5053669;28;20063;-75
2022/07/24 04:02:36;;;;;;;8.13;5.18;;;;;;;-148.88;98.38;75893.00;5055439;28;20474;-75
2022/07/24 04:05:02;;;;;;;7.30;5.20;;;;;;;-148.88;98.42;75890.97;5053943;28;20029;-75
2022/07/24 04:07:27;;;;;;;8.80;5.40;;;;;;;-148.88;98.68;75899.09;5054089;28;20025;-75
2022/07/24 04:09:53;;;;;;;8.57;5.35;;;;;;;-148.88;99.28;75888.94;5052385;28;20017;-75
2022/07/24 04:12:18;;;;;;;7.55;5.35;;;;;;;-148.88;99.64;75893.00;5052236;28;20021;-76
2022/07/24 04:14:43;;;;;;;7.10;5.22;;;;;;;-148.88;99.89;75901.13;5053921;28;20025;-75
2022/07/24 04:17:09;;;;;;;8.60;5.30;;;;;;;-148.88;99.78;75905.19;5052119;28;20078;-75
2022/07/24 04:19:34;;;;;;;8.07;5.45;;;;;;;-148.88;99.83;75899.09;5053327;28;20413;-75
2022/07/24 04:21:59;;;;;;;6.53;5.05;;;;;;;-148.88;99.81;75893.00;5052066;28;20025;-77
2022/07/24 04:24:25;;;;;;;6.05;5.03;;;;;;;-148.88;99.52;75893.00;5053266;28;20032;-76
2022/07/24 04:26:51;;;;;;;7.07;4.68;;;;;;;-148.88;99.20;75886.91;5053261;28;20070;-75
2022/07/24 04:29:16;;;;;;;8.32;4.90;;;;;;;-148.88;99.09;75874.72;5053173;28;20394;-75
2022/07/24 04:31:41;;;;;;;5.95;4.53;;;;;;;-148.88;98.85;75864.56;5053265;28;20143;-75
2022/07/24 04:34:07;;;;;;;8.13;5.15;;;;;;;-148.88;98.66;75862.53;5053061;28;20393;-75
2022/07/24 04:36:32;;;;;;;6.82;4.68;;;;;;;-148.88;98.65;75868.63;5051907;28;20117;-75
2022/07/24 04:38:57;;;;;;;7.75;5.10;;;;;;;-148.88;98.60;75858.47;5053315;28;20021;-75
2022/07/24 04:41:23;;;;;;;8.38;4.63;;;;;;;-148.88;98.67;75858.47;5052866;28;20079;-75
2022/07/24 04:43:49;;;;;;;7.68;4.32;;;;;;;-148.88;98.73;75846.28;5053144;28;20500;-75
2022/07/24 04:46:15;;;;;;;6.30;4.93;;;;;;;-148.88;98.99;75842.22;5053072;28;20021;-75
2022/07/24 04:48:40;;;;;;;8.93;5.40;;;;;;;-148.88;99.19;75834.09;5052994;28;20028;-75
2022/07/24 04:51:05;;;;;;;8.35;5.30;;;;;;;-148.88;98.77;75834.09;5051602;28;20028;-75
2022/07/24 04:53:31;;;;;;;7.50;4.97;;;;;;;-148.88;98.41;75832.06;5051479;28;20518;-76
2022/07/24 04:55:57;;;;;;;7.45;4.53;;;;;;;-148.88;98.67;75825.97;5053178;28;20021;-76
2022/07/24 04:58:23;;;;;;;7.00;5.25;;;;;;;-148.88;98.58;75821.91;5052856;28;20096;-76
2022/07/24 05:00:48;;;;;;;7.55;4.70;;;;;;;-148.88;98.87;75819.88;5051559;28;20044;-75
2022/07/24 05:03:13;;;;;;;7.35;5.25;;;;;;;-148.88;99.18;75817.84;5052811;28;20048;-75
2022/07/24 05:05:38;;;;;;;7.15;5.32;;;;;;;-148.88;99.83;75813.78;5053132;28;20025;-76
2022/07/24 05:08:04;;;;;;;7.32;4.75;;;;;;;-148.88;99.73;75809.72;5051504;28;20363;-75
2022/07/24 05:10:29;;;;;;;9.27;5.28;;;;;;;-148.88;100.00;75795.50;5052726;28;20075;-75
2022/07/24 05:12:54;;;;;;;9.13;5.18;;;;;;;-148.88;99.86;75793.47;5053113;28;20024;-75
2022/07/24 05:15:20;;;;;;;6.20;4.95;;;;;;;-148.88;99.78;75789.41;5053464;28;20382;-75
2022/07/24 05:17:47;;;;;;;6.88;4.82;;;;;;;-148.88;99.96;75781.28;5051891;28;20036;-75
2022/07/24 05:20:12;;;;;;;9.32;4.63;;;;;;;-148.88;99.65;75769.09;5052833;28;20028;-75
2022/07/24 05:22:38;;;;;;;7.38;5.18;;;;;;;-148.88;99.79;75760.97;5051576;28;20029;-75
2022/07/24 05:25:03;;;;;;;11.57;5.28;;;;;;;-148.88;99.15;75754.88;5051793;28;20025;-75
2022/07/24 05:27:29;;;;;;;7.90;4.70;;;;;;;-148.88;98.38;75744.72;5052609;28;20057;-75
2022/07/24 05:29:54;;;;;;;4.82;4.05;;;;;;;-148.88;98.04;75730.50;5051299;28;20032;-75
2022/07/24 05:32:19;;;;;;;7.57;4.53;;;;;;;-148.88;97.96;75720.34;5051261;28;20087;-75
2022/07/24 05:34:44;;;;;;;9.68;4.60;;;;;;;-148.88;97.48;75716.28;5052580;28;20039;-75
2022/07/24 05:37:10;;;;;;;8.07;4.45;;;;;;;-148.88;97.01;75704.09;5052576;28;20039;-75
2022/07/24 05:39:35;;;;;;;6.70;4.50;;;;;;;-148.88;97.10;75698.00;5052420;28;20021;-75
2022/07/24 05:42:01;;;;;;;6.57;4.50;;;;;;;-148.88;97.44;75691.91;5052504;28;20032;-75
2022/07/24 05:44:26;;;;;;;6.43;4.28;;;;;;;-148.88;97.46;75683.78;5053271;28;20063;-75
2022/07/24 05:46:51;;;;;;;5.25;4.20;;;;;;;-148.88;96.35;75673.63;5056464;28;20028;-75
2022/07/24 05:49:17;;;;;;;8.88;4.22;;;;;;;-148.88;96.25;75663.47;5056011;28;20101;-75
2022/07/24 05:51:42;;;;;;;6.10;3.80;;;;;;;-148.88;96.54;75649.25;5056003;28;20024;-75
2022/07/24 05:54:07;;;;;;;6.13;4.38;;;;;;;-148.88;96.14;75635.03;5055959;28;20033;-75
2022/07/24 05:56:32;;;;;;;5.05;4.10;;;;;;;-148.88;95.40;75624.88;5056359;28;20032;-75
2022/07/24 05:58:58;;;;;;;6.53;3.60;;;;;;;-148.88;95.41;75608.63;5056012;28;20085;-75
2022/07/24 06:01:23;;;;;;;6.03;3.70;;;;;;;-148.88;94.74;75604.56;5055829;28;20029;-75
2022/07/24 06:03:48;;;;;;;6.30;4.05;;;;;;;-148.88;93.97;75602.53;5055863;28;20063;-75
2022/07/24 06:06:14;;;;;;;6.10;3.75;;;;;;;-148.88;92.68;75594.44;5055901;28;20507;-75
2022/07/24 06:08:39;;;;;;;6.22;3.72;;;;;;;-148.88;92.76;75586.31;5056050;28;20033;-75
2022/07/24 06:11:05;;;;;;;5.35;3.92;;;;;;;-148.88;93.20;75578.19;5055607;28;20017;-75
2022/07/24 06:13:30;;;;;;;7.47;3.90;;;;;;;-148.88;93.17;75559.91;5055682;28;20033;-75
2022/07/24 06:15:55;;;;;;;5.93;3.58;;;;;;;-148.88;93.38;75551.78;5054412;28;20025;-75
2022/07/24 06:18:20;;;;;;;5.63;3.67;;;;;;;-148.88;92.88;75545.69;5054382;28;20037;-75
2022/07/24 06:20:46;;;;;;;4.72;3.58;;;;;;;-148.88;92.66;75529.44;5055791;28;20021;-75
2022/07/24 06:23:11;;;;;;;4.82;3.75;;;;;;;-148.88;92.02;75521.31;5055579;28;20056;-75
2022/07/24 06:25:36;;;;;;;6.25;3.28;;;;;;;-148.88;92.21;75507.09;5054228;28;20033;-75
2022/07/24 06:28:02;;;;;;;4.00;3.30;;;;;;;-148.88;92.16;75501.00;5055476;28;20013;-76
2022/07/24 06:30:28;;;;;;;3.92;3.20;;;;;;;-148.88;92.30;75484.75;5054137;28;20548;-76
2022/07/24 06:32:55;;;;;;;4.28;3.33;;;;;;;-148.88;91.19;75468.50;5055726;28;20024;-75
2022/07/24 06:35:21;;;;;;;5.53;3.17;;;;;;;-148.88;90.71;75458.34;5055349;28;20040;-75
2022/07/24 06:37:46;;;;;;;4.35;3.15;;;;;;;-148.88;89.03;75438.03;5055240;28;20028;-75
2022/07/24 06:40:12;;;;;;;8.95;3.20;;;;;;;-148.88;87.89;75419.75;5055117;28;20052;-75
2022/07/24 06:42:37;;;;;;;6.82;3.25;;;;;;;-148.88;87.46;75409.59;5055118;28;20028;-75
2022/07/24 06:45:04;;;;;;;5.40;3.30;;;;;;;-148.88;88.45;75389.28;5055323;28;20033;-75
2022/07/24 06:47:29;;;;;;;4.05;3.00;;;;;;;-148.88;86.35;75385.22;5053836;28;20052;-75
2022/07/24 06:49:55;;;;;;;4.70;3.10;;;;;;;-148.88;87.04;75379.13;5055102;28;20068;-76
2022/07/24 06:52:21;;;;;;;3.88;3.00;;;;;;;-148.88;86.86;75377.09;5053508;28;20025;-76
2022/07/24 06:54:46;;;;;;;4.63;2.95;;;;;;;-148.88;87.20;75354.75;5054932;28;20028;-75
2022/07/24 06:57:12;;;;;;;5.32;3.13;;;;;;;-148.88;84.96;75322.25;5055018;28;20032;-76
2022/07/24 06:59:37;;;;;;;7.43;3.33;;;;;;;-148.88;84.40;75301.94;5054764;28;20032;-76
2022/07/24 07:02:03;;;;;;;4.57;2.80;;;;;;;-148.88;85.03;75295.84;5054765;28;20033;-75
2022/07/24 07:04:28;;;;;;;5.07;3.00;;;;;;;-148.88;84.58;75279.59;5053538;28;20025;-75
2022/07/24 07:06:53;;;;;;;4.22;3.13;;;;;;;-148.88;83.61;75265.41;5053397;28;20021;-76
2022/07/24 07:09:18;;;;;;;4.60;3.05;;;;;;;-148.88;83.53;75253.22;5054851;28;20150;-75
2022/07/24 07:11:44;;;;;;;5.10;3.20;;;;;;;-148.88;83.94;75243.06;5053491;28;20023;-75
2022/07/24 07:14:09;;;;;;;6.68;3.00;;;;;;;-148.88;82.10;75230.88;5054583;28;20036;-75
2022/07/24 07:16:34;;;;;;;4.88;3.75;;;;;;;-148.88;82.62;75220.72;5054463;28;20024;-75
2022/07/24 07:19:00;;;;;;;4.25;2.97;;;;;;;-148.88;83.30;75212.59;5053179;28;20040;-76
2022/07/24 07:21:25;;;;;;;6.05;3.17;;;;;;;-148.88;81.62;75200.41;5054364;28;20017;-75
2022/07/24 07:23:52;;;;;;;5.22;3.40;;;;;;;-148.88;80.05;75184.16;5054387;28;20052;-75
2022/07/24 07:26:17;;;;;;;5.88;3.63;;;;;;;-148.88;79.14;75167.91;5054270;28;20095;-76
2022/07/24 07:28:43;;;;;;;5.45;3.40;;;;;;;-148.88;78.62;75131.34;5054226;28;20025;-76
2022/07/24 07:31:08;;;;;;;5.40;3.70;;;;;;;-148.88;74.88;75113.06;5052854;28;20471;-76
2022/07/24 07:33:33;;;;;;;4.82;3.22;;;;;;;-148.88;78.15;75098.84;5054438;28;20021;-75
2022/07/24 07:35:59;;;;;;;5.03;3.40;;;;;;;-148.88;78.18;75070.44;5052827;28;20025;-75
2022/07/24 07:38:24;;;;;;;6.43;3.55;;;;;;;-148.88;76.39;75058.25;5054028;28;20029;-76
2022/07/24 07:40:49;;;;;;;6.10;3.30;;;;;;;-148.88;74.76;75037.94;5054005;28;20029;-76
2022/07/24 07:43:15;;;;;;;6.32;3.72;;;;;;;-148.88;74.21;75017.63;5054021;28;20031;-76
2022/07/24 07:45:40;;;;;;;6.20;3.78;;;;;;;-148.88;70.88;74997.31;5052712;28;20117;-76
2022/07/24 07:48:05;;;;;;;5.75;3.83;;;;;;;-148.88;70.56;74991.22;5053959;28;20036;-76
2022/07/24 07:50:30;;;;;;;5.07;3.92;;;;;;;-148.88;65.07;74944.53;5053948;28;20091;-75
2022/07/24 07:52:56;;;;;;;7.75;4.00;;;;;;;-148.88;64.17;74924.22;5053757;28;20542;-75
2022/07/24 07:55:22;;;;;;;7.20;4.13;;;;;;;-148.88;67.07;74916.09;5053968;28;20051;-75
2022/07/24 07:57:49;;;;;;;5.38;3.70;;;;;;;-148.88;66.26;74895.78;5052490;28;20112;-76
2022/07/24 08:00:14;;;;;;;4.88;3.42;;;;;;;-148.88;67.83;74881.56;5053633;28;20044;-76
2022/07/24 08:02:40;;;;;;;4.88;3.95;;;;;;;-148.88;65.86;74867.34;5053708;28;20025;-76
2022/07/24 08:05:06;;;;;;;5.85;3.58;;;;;;;-148.88;65.96;74867.34;5053603;28;20068;-75
2022/07/24 08:07:31;;;;;;;4.90;3.92;;;;;;;-148.88;61.92;74863.28;5053053;28;20047;-76
2022/07/24 08:09:57;;;;;;;5.63;3.55;;;;;;;-148.88;61.15;74830.78;5053414;28;20111;-76
2022/07/24 08:12:22;;;;;;;6.03;4.03;;;;;;;-148.88;60.55;74810.50;5053361;28;20028;-76
2022/07/24 08:14:47;;;;;;;5.63;3.80;;;;;;;-148.88;60.98;74804.41;5053410;28;20112;-75
2022/07/24 08:17:13;;;;;;;5.97;4.00;;;;;;;-148.88;60.25;74796.28;5053408;28;20075;-76
2022/07/24 08:19:38;;;;;;;6.88;4.40;;;;;;;-148.88;59.43;74784.09;5053551;28;20028;-76
2022/07/24 08:22:04;;;;;;;7.25;3.92;;;;;;;-148.88;59.65;74737.38;5053299;28;20032;-76
2022/07/24 08:24:32;;;;;;;4.88;4.10;;;;;;;-148.88;56.74;74729.25;5053416;28;20027;-76
2022/07/24 08:26:58;;;;;;;5.68;4.10;;;;;;;-148.88;56.20;74733.31;5053485;28;20020;-75
2022/07/24 08:29:24;;;;;;;6.65;4.63;;;;;;;-148.88;54.99;74708.94;5053462;28;20031;-75
2022/07/24 08:31:50;;;;;;;6.13;4.53;;;;;;;-148.88;54.20;74708.94;5051839;28;20024;-75
2022/07/24 08:34:15;;;;;;;7.18;4.25;;;;;;;-148.88;52.89;74713.00;5053163;28;20094;-76
2022/07/24 08:36:40;;;;;;;7.75;4.60;;;;;;;-148.88;53.37;74684.59;5051875;28;20096;-75
2022/07/24 08:39:06;;;;;;;6.75;4.55;;;;;;;-148.88;51.24;74682.56;5051858;28;20111;-76
2022/07/24 08:41:35;;;;;;;6.13;4.50;;;;;;;-148.88;51.78;74668.34;5051773;28;20017;-76
2022/07/24 08:44:01;;;;;;;6.40;4.30;;;;;;;-148.88;55.61;74643.97;5053594;28;20397;-76
2022/07/24 08:46:28;;;;;;;7.35;4.78;;;;;;;-148.88;50.28;74631.78;5052999;28;20470;-76
2022/07/24 08:48:54;;;;;;;5.55;4.30;;;;;;;-148.88;50.17;74623.66;5052983;28;20496;-76
2022/07/24 08:51:20;;;;;;;7.35;4.20;;;;;;;-148.88;51.64;74617.56;5052792;28;20446;-76
2022/07/24 08:53:47;;;;;;;6.82;4.25;;;;;;;-148.88;49.50;74593.22;5069761;22;20075;-75
2022/07/24 08:56:12;;;;;;;6.80;4.40;;;;;;;-148.88;48.09;74599.28;5055294;28;20033;-77
2022/07/24 08:58:39;;;;;;;5.50;4.07;;;;;;;-148.88;48.42;74587.13;5052537;28;20394;-76
2022/07/24 09:01:05;;;;;;;6.47;4.00;;;;;;;-148.88;47.92;74581.03;5052782;28;20017;-76
2022/07/24 09:03:45;;;;;;;6.38;4.35;;;;;;;-148.88;46.62;74566.81;5052675;28;20037;-76
2022/07/24 09:06:13;;;;;;;6.75;4.30;;;;;;;-148.88;47.88;74550.56;5052690;28;20170;-76
2022/07/24 09:08:43;;;;;;;5.38;4.32;;;;;;;-148.88;46.80;74550.56;5052515;28;20025;-76
2022/07/24 09:11:09;;;;;;;5.60;4.25;;;;;;;-148.88;47.86;74538.38;5052558;28;20434;-76
2022/07/24 09:16:25;;;;;;;6.28;4.32;;;;;;;-148.88;46.92;74505.88;5052957;28;20075;-76
2022/07/24 09:19:02;;;;;;;6.53;3.85;;;;;;;-148.88;49.09;74497.78;5052591;28;20474;-76
2022/07/24 09:21:32;;;;;;;5.00;3.90;;;;;;;-148.88;48.15;74467.31;5056670;28;20036;-75
2022/07/24 09:24:02;;;;;;;4.78;3.90;;;;;;;-148.88;48.09;74469.34;5056351;28;20116;-76
2022/07/24 09:26:46;;;;;;;8.13;4.88;;;;;;;-148.88;46.25;74465.28;5056964;28;20447;-75
2022/07/24 09:29:12;;;;;;;6.05;4.10;;;;;;;-148.88;48.05;74444.97;5055422;28;20492;-76
2022/07/24 09:32:02;;;;;;;5.13;3.97;;;;;;;-148.88;47.72;74442.94;5056417;28;20020;-77
2022/07/24 09:34:36;;;;;;;6.45;4.38;;;;;;;-148.88;49.26;74400.31;5056281;28;20028;-76
2022/07/24 09:37:04;;;;;;;7.63;5.00;;;;;;;-148.88;44.84;74380.00;5056293;28;20474;-77
2022/07/24 09:39:33;;;;;;;5.78;4.00;;;;;;;-148.88;46.55;74363.75;5056214;28;20029;-77
2022/07/24 09:42:01;;;;;;;6.85;4.50;;;;;;;-148.88;45.08;74343.44;5056384;28;20053;-77
2022/07/24 09:44:28;;;;;;;5.85;4.95;;;;;;;-148.88;45.21;74333.28;5056149;28;20029;-76
2022/07/24 09:46:56;;;;;;;6.45;4.20;;;;;;;-148.88;47.06;74323.16;5056023;28;20444;-76
2022/07/24 09:49:22;;;;;;;7.70;5.07;;;;;;;-148.88;45.19;74310.97;5055976;28;20017;-76
2022/07/24 09:52:12;;;;;;;8.70;5.00;;;;;;;-148.88;48.63;74284.56;5054605;28;20031;-76
2022/07/24 09:54:43;;;;;;;6.28;4.25;;;;;;;-148.88;44.31;74260.19;5055995;28;20039;-76
2022/07/24 09:57:27;;;;;;;5.90;4.82;;;;;;;-148.88;44.33;74250.03;5056192;28;20025;-76
2022/07/24 09:59:58;;;;;;;7.15;4.88;;;;;;;-148.88;44.41;74227.72;5055913;28;20108;-76
2022/07/24 10:02:29;;;;;;;7.53;5.03;;;;;;;-148.88;43.80;74225.69;5055726;28;20030;-76
2022/07/24 10:04:56;;;;;;;7.68;4.88;;;;;;;-148.88;44.59;74219.59;5055997;28;20035;-76
2022/07/24 10:07:23;;;;;;;9.00;4.28;;;;;;;-148.88;45.71;74205.38;5056182;28;20037;-76
2022/07/24 10:09:52;;;;;;;7.95;5.22;;;;;;;-148.88;44.34;74205.38;5056634;28;20028;-77
2022/07/24 10:12:23;;;;;;;8.25;4.82;;;;;;;-148.88;44.64;74187.09;5055436;28;20051;-79
2022/07/24 10:14:50;;;;;;;7.63;5.45;;;;;;;-148.88;43.79;74197.25;5055878;28;20032;-77
2022/07/24 10:17:17;;;;;;;7.15;4.50;;;;;;;-148.88;45.51;74156.66;5055366;28;20543;-77
2022/07/24 10:19:45;;;;;;;7.50;5.07;;;;;;;-148.88;44.94;74144.47;5055667;28;20033;-77
2022/07/24 10:22:14;;;;;;;6.20;4.40;;;;;;;-148.88;44.94;74124.16;5053972;28;20094;-76
2022/07/24 10:24:53;;;;;;;5.78;3.95;;;;;;;-148.88;44.44;74091.69;5055340;28;20044;-76
2022/07/24 10:27:31;;;;;;;6.75;4.40;;;;;;;-148.88;44.48;74085.59;5055513;28;20036;-76
2022/07/24 10:30:11;;;;;;;6.32;4.45;;;;;;;-148.88;42.75;74120.09;5053845;28;20072;-76
2022/07/24 10:32:37;;;;;;;6.50;4.88;;;;;;;-148.88;43.41;74116.03;5055285;28;20560;-76
2022/07/24 10:35:21;;;;;;;9.77;4.32;;;;;;;-148.88;44.85;74095.72;5055179;28;20120;-76
2022/07/24 10:38:10;;;;;;;6.15;4.78;;;;;;;-148.88;42.46;74034.81;5053696;28;20107;-77
2022/07/24 10:40:44;;;;;;;6.20;4.50;;;;;;;-148.88;43.19;74024.69;5055182;28;20049;-76
2022/07/24 10:43:12;;;;;;;6.78;5.05;;;;;;;-148.88;40.91;74049.03;5054841;28;20043;-76
2022/07/24 10:45:46;;;;;;;6.15;5.13;;;;;;;-148.88;41.50;74075.44;5055282;28;20036;-75
2022/07/24 10:48:35;;;;;;;7.20;4.93;;;;;;;-148.88;41.97;74034.81;5054864;28;20017;-76
2022/07/24 10:51:15;;;;;;;6.53;4.30;;;;;;;-148.88;42.92;74051.06;5054913;28;20151;-77
2022/07/24 10:53:41;;;;;;;6.85;4.72;;;;;;;-148.88;42.17;74075.44;5054460;28;20064;-77
2022/07/24 10:56:26;;;;;;;5.20;4.67;;;;;;;-148.88;42.19;74057.16;5054809;28;20055;-77
2022/07/24 10:59:06;;;;;;;7.68;4.60;;;;;;;-148.88;41.58;74008.44;5053198;28;20268;-77
2022/07/24 11:01:50;;;;;;;6.28;4.93;;;;;;;-148.88;41.19;74030.75;5054692;28;20021;-77
2022/07/24 11:04:18;;;;;;;7.65;4.70;;;;;;;-148.88;41.32;73965.78;5054821;28;20029;-76
2022/07/24 11:06:52;;;;;;;5.68;4.38;;;;;;;-148.88;40.20;73925.19;5053053;28;20029;-77
2022/07/24 11:09:20;;;;;;;7.38;4.47;;;;;;;-148.88;40.90;73933.31;5053225;28;20021;-76
2022/07/24 11:12:06;;;;;;;6.03;4.80;;;;;;;-148.88;40.02;73949.56;5054367;28;20017;-76
2022/07/24 11:14:38;;;;;;;7.22;4.30;;;;;;;-148.88;40.03;73876.47;5052974;28;20397;-76
2022/07/24 11:17:40;;;;;;;8.02;5.10;;;;;;;-148.88;38.89;73878.50;5054496;28;20028;-76
2022/07/24 11:20:13;;;;;;;9.18;5.00;;;;;;;-148.88;38.79;73906.91;5054773;28;20055;-76
2022/07/24 11:22:41;;;;;;;7.75;4.95;;;;;;;-148.88;40.31;73945.50;5054280;28;20029;-76